Weather at Baltimore/Washington International Thurgood Marshall Airport

Public forecast

Using degrees Fahrenheit for public forecast. Weather courtesy of forecast.io.

Current aviation weather report (METAR) for Baltimore/Washington International Thurgood Marshall Airport

Retrieved 2021/04/11 08:54 UTC (9 minutes ago):

KBWI 110854Z 09011KT 3/4SM R10/6000VP6000FT +RA BR BKN003 OVC009 15/14 A2956 RMK AO2 SLP009 P0028 60033 T01500139 58034

Aviation forecast (TAF) for Baltimore/Washington International Thurgood Marshall Airport

Retrieved 2021/04/11 06:40 UTC (2 hours ago):

TAF KBWI 110537Z 1106/1212 10005KT P6SM -RA OVC050 FM111000 11005KT 4SM SHRA BR OVC008 FM111200 15003KT 6SM BR OVC015 FM111500 25006KT P6SM SCT025 FM112000 18007KT P6SM VCSH BKN050 FM120100 28005KT P6SM SCT060